Time;durP1;ratioP1;P1;durP2;ratioP2;P2;SDS_P1;SDS_P2;PMS_P1;PMS_P2;Temp;Humidity;BMP_temperature;BMP_pressure;BME280_temperature;BME280_humidity;BME280_pressure;Samples;Min_cycle;Max_cycle;Signal;HPM_P1;HPM_P2
2021/12/21 00:00:20;;;;;;;11.80;4.07;;;-0.20;99.90;;;;;;5048938;28;20111;-91
2021/12/21 00:02:49;;;;;;;13.38;4.57;;;-0.20;99.90;;;;;;5019609;28;20694;-91
2021/12/21 00:05:20;;;;;;;14.25;4.70;;;-0.20;99.90;;;;;;5032672;28;20036;-91
2021/12/21 00:07:49;;;;;;;9.38;4.18;;;-0.20;99.90;;;;;;5016370;28;20072;-90
2021/12/21 00:10:16;;;;;;;9.88;3.80;;;-0.20;99.90;;;;;;5016038;28;20045;-91
2021/12/21 00:13:00;;;;;;;10.80;3.65;;;-0.30;99.90;;;;;;5032695;28;20087;-91
2021/12/21 00:20:57;;;;;;;11.60;5.13;;;-0.30;99.90;;;;;;5032773;28;20044;-90
2021/12/21 00:23:33;;;;;;;14.77;5.63;;;-0.30;99.90;;;;;;5025711;28;20280;-91
2021/12/21 00:26:01;;;;;;;14.77;5.85;;;-0.30;99.90;;;;;;5022909;28;20067;-91
2021/12/21 00:28:30;;;;;;;10.98;4.60;;;-0.40;99.90;;;;;;5024738;28;20040;-91
2021/12/21 00:30:56;;;;;;;19.48;7.10;;;-0.40;99.90;;;;;;5040452;28;20461;-91
2021/12/21 00:33:21;;;;;;;12.70;6.03;;;-0.40;99.90;;;;;;5041745;28;20045;-91
2021/12/21 00:35:47;;;;;;;13.38;6.38;;;-0.40;99.90;;;;;;5031802;28;20414;-91
2021/12/21 00:38:13;;;;;;;9.45;4.82;;;-0.40;99.90;;;;;;5029841;28;20041;-91
2021/12/21 00:40:39;;;;;;;12.07;4.53;;;-0.40;99.90;;;;;;5015007;28;20040;-91
2021/12/21 00:43:05;;;;;;;10.35;3.88;;;-0.40;99.90;;;;;;5032532;28;20040;-91
2021/12/21 00:45:31;;;;;;;9.18;3.60;;;-0.40;99.90;;;;;;5033253;28;20069;-91
2021/12/21 00:47:56;;;;;;;15.30;3.78;;;-0.40;99.90;;;;;;5032997;28;20513;-91
2021/12/21 00:50:23;;;;;;;10.02;4.10;;;-0.40;99.90;;;;;;5016544;28;20116;-91
2021/12/21 00:52:52;;;;;;;9.35;3.78;;;-0.50;99.90;;;;;;5032900;28;20045;-91
2021/12/21 00:55:18;;;;;;;10.32;4.25;;;-0.50;99.90;;;;;;5032745;28;20055;-91
2021/12/21 00:57:44;;;;;;;10.25;4.15;;;-0.50;99.90;;;;;;5032684;28;20045;-90
2021/12/21 01:00:12;;;;;;;10.20;3.95;;;-0.50;99.90;;;;;;5031674;28;20048;-91
2021/12/21 01:02:40;;;;;;;12.75;4.53;;;-0.50;99.90;;;;;;5023973;28;20033;-91
2021/12/21 01:05:14;;;;;;;9.75;3.90;;;-0.50;99.90;;;;;;5015667;28;20036;-91
2021/12/21 01:07:43;;;;;;;8.95;3.63;;;-0.60;99.90;;;;;;5036615;28;20037;-91
2021/12/21 01:13:09;;;;;;;11.10;4.43;;;-0.60;99.90;;;;;;5036143;28;20041;-91
2021/12/21 01:18:24;;;;;;;12.63;5.05;;;-0.70;99.90;;;;;;5036670;28;20044;-91
2021/12/21 01:21:03;;;;;;;13.60;6.03;;;-0.70;99.90;;;;;;5020043;28;20029;-91
2021/12/21 01:31:37;;;;;;;8.65;3.67;;;-0.80;99.90;;;;;;5014454;28;20041;-90
2021/12/21 01:42:27;;;;;;;6.35;2.60;;;-1.00;99.90;;;;;;5035722;28;20072;-91
2021/12/21 01:50:21;;;;;;;2.92;1.10;;;-1.00;99.90;;;;;;5035462;28;20084;-90
2021/12/21 01:52:47;;;;;;;3.38;1.33;;;-1.10;99.90;;;;;;5019780;28;20130;-91
2021/12/21 01:55:12;;;;;;;4.60;1.60;;;-1.10;99.90;;;;;;5035792;28;20045;-91
2021/12/21 01:57:38;;;;;;;2.63;1.15;;;-1.10;99.90;;;;;;5036077;28;20426;-91
2021/12/21 02:00:06;;;;;;;3.55;1.10;;;-1.10;99.90;;;;;;5036099;28;20032;-91
2021/12/21 02:02:31;;;;;;;4.95;1.48;;;-1.10;99.90;;;;;;5036200;28;20040;-91
2021/12/21 02:04:57;;;;;;;6.38;1.60;;;-1.20;99.90;;;;;;5018677;28;20405;-91
2021/12/21 02:07:23;;;;;;;7.47;1.67;;;-1.10;99.90;;;;;;5018792;28;20087;-91
2021/12/21 02:09:48;;;;;;;6.40;2.10;;;-1.10;99.90;;;;;;5035456;28;20041;-91
2021/12/21 02:12:17;;;;;;;6.30;1.77;;;-1.10;99.90;;;;;;5018698;28;20662;-91
2021/12/21 02:14:48;;;;;;;5.45;1.83;;;-1.10;99.90;;;;;;5035509;28;20480;-91
2021/12/21 02:20:07;;;;;;;4.68;1.73;;;-1.10;99.90;;;;;;5035066;28;20045;-91
2021/12/21 02:22:37;;;;;;;4.40;1.45;;;-1.10;99.90;;;;;;5019394;28;20052;-91
2021/12/21 02:25:21;;;;;;;4.70;1.45;;;-1.20;99.90;;;;;;5018537;28;20040;-91
2021/12/21 02:30:31;;;;;;;3.75;1.45;;;-1.20;99.90;;;;;;5035511;28;20041;-91
2021/12/21 02:32:56;;;;;;;6.78;1.70;;;-1.20;99.90;;;;;;5018838;28;20047;-91
2021/12/21 02:35:22;;;;;;;4.68;1.77;;;-1.20;99.90;;;;;;5034682;28;20037;-91
2021/12/21 02:37:47;;;;;;;7.40;1.88;;;-1.20;99.90;;;;;;5018734;28;20049;-91
2021/12/21 02:40:13;;;;;;;6.85;1.92;;;-1.20;99.90;;;;;;5035036;28;20037;-91
2021/12/21 02:42:38;;;;;;;8.02;2.30;;;-1.10;99.90;;;;;;5034826;28;20033;-91
2021/12/21 02:45:06;;;;;;;8.43;2.25;;;-1.10;99.90;;;;;;5034956;28;20040;-91
2021/12/21 02:47:32;;;;;;;9.02;2.05;;;-1.10;99.90;;;;;;5034757;28;20093;-91
2021/12/21 02:49:59;;;;;;;6.75;2.25;;;-1.10;99.90;;;;;;5034416;28;20044;-91
2021/12/21 02:52:24;;;;;;;9.32;3.10;;;-1.10;99.90;;;;;;5018828;28;20066;-92
2021/12/21 02:54:50;;;;;;;7.10;2.45;;;-1.10;99.90;;;;;;5034925;28;20045;-91
2021/12/21 02:57:15;;;;;;;6.47;2.30;;;-1.10;99.90;;;;;;5034145;28;20505;-92
2021/12/21 02:59:41;;;;;;;8.23;2.70;;;-1.10;99.90;;;;;;5018572;28;20044;-91
2021/12/21 03:02:07;;;;;;;5.88;1.90;;;-1.10;99.90;;;;;;5034771;28;20044;-91
2021/12/21 03:04:32;;;;;;;7.97;2.28;;;-1.10;99.90;;;;;;5033208;28;20044;-91
2021/12/21 03:09:43;;;;;;;8.07;1.83;;;-1.10;99.90;;;;;;5033738;28;20056;-91
2021/12/21 03:12:33;;;;;;;5.38;1.90;;;-1.10;99.90;;;;;;5034557;28;20406;-91
2021/12/21 03:14:58;;;;;;;5.95;2.22;;;-1.10;99.90;;;;;;5033980;28;20045;-92
2021/12/21 03:17:24;;;;;;;6.22;2.10;;;-1.10;99.90;;;;;;5034561;28;20383;-91
2021/12/21 03:19:50;;;;;;;6.03;1.83;;;-1.10;99.90;;;;;;5034317;28;20044;-91
2021/12/21 03:22:15;;;;;;;5.80;1.67;;;-1.10;99.90;;;;;;5018052;28;20041;-91
2021/12/21 03:24:43;;;;;;;7.55;2.30;;;-1.10;99.90;;;;;;5017993;28;20037;-91
2021/12/21 03:27:09;;;;;;;5.75;2.25;;;-1.20;99.90;;;;;;5034152;28;20045;-92
2021/12/21 03:29:35;;;;;;;8.05;2.75;;;-1.20;99.90;;;;;;5017070;28;20037;-91
2021/12/21 03:32:01;;;;;;;8.27;2.35;;;-1.20;99.90;;;;;;5034601;28;20037;-91
2021/12/21 03:34:27;;;;;;;6.35;2.42;;;-1.30;99.90;;;;;;5032874;28;20136;-91
2021/12/21 03:36:54;;;;;;;6.28;2.22;;;-1.40;99.90;;;;;;5017336;28;20075;-91
2021/12/21 03:39:21;;;;;;;8.13;2.75;;;-1.40;99.90;;;;;;5033996;28;20090;-91
2021/12/21 03:41:53;;;;;;;8.45;3.10;;;-1.40;99.90;;;;;;5017373;28;20068;-91
2021/12/21 03:44:20;;;;;;;10.63;4.50;;;-1.40;99.90;;;;;;5017693;28;20513;-91
2021/12/21 03:46:48;;;;;;;7.30;2.55;;;-1.40;99.90;;;;;;5033657;28;20128;-92
2021/12/21 03:51:59;;;;;;;8.82;3.20;;;-1.40;99.90;;;;;;5034220;28;20045;-91
2021/12/21 03:54:25;;;;;;;9.80;4.13;;;-1.40;99.90;;;;;;5033467;28;20045;-91
2021/12/21 03:56:52;;;;;;;10.88;4.40;;;-1.40;99.90;;;;;;5016964;28;20414;-91
2021/12/21 03:59:18;;;;;;;11.25;4.63;;;-1.40;99.90;;;;;;5017291;28;20456;-91
2021/12/21 04:01:45;;;;;;;9.18;4.20;;;-1.40;99.90;;;;;;5033538;28;20565;-91
2021/12/21 04:04:11;;;;;;;10.13;3.47;;;-1.50;99.90;;;;;;5016213;28;20128;-91
2021/12/21 04:06:37;;;;;;;10.63;4.18;;;-1.50;99.90;;;;;;5033458;28;20158;-92
2021/12/21 04:09:07;;;;;;;7.85;3.15;;;-1.40;99.90;;;;;;5017169;28;20051;-91
2021/12/21 04:11:33;;;;;;;11.20;3.13;;;-1.40;99.90;;;;;;5032625;28;20041;-91
2021/12/21 04:14:00;;;;;;;9.50;3.03;;;-1.40;99.90;;;;;;5014142;28;20037;-91
2021/12/21 04:16:26;;;;;;;11.02;3.33;;;-1.40;99.90;;;;;;5030483;28;20073;-91
2021/12/21 04:18:52;;;;;;;8.70;3.50;;;-1.40;99.90;;;;;;5032934;28;20091;-91
2021/12/21 04:21:17;;;;;;;8.65;3.45;;;-1.40;99.90;;;;;;5016892;28;20466;-91
2021/12/21 04:23:43;;;;;;;9.60;3.80;;;-1.40;99.90;;;;;;5033301;28;20037;-91
2021/12/21 04:26:10;;;;;;;13.52;5.00;;;-1.40;99.90;;;;;;5032848;28;20052;-92
2021/12/21 04:28:36;;;;;;;9.07;3.42;;;-1.40;99.90;;;;;;5016643;28;20040;-91
2021/12/21 04:31:03;;;;;;;8.15;3.10;;;-1.40;99.90;;;;;;5015956;28;20040;-91
2021/12/21 04:33:29;;;;;;;11.90;2.40;;;-1.50;99.90;;;;;;5024034;28;20037;-91
2021/12/21 04:35:54;;;;;;;6.60;2.00;;;-1.50;99.90;;;;;;5032671;28;20090;-91
2021/12/21 04:38:26;;;;;;;8.40;2.28;;;-1.50;99.90;;;;;;5033112;28;20154;-91
2021/12/21 04:41:03;;;;;;;5.35;1.67;;;-1.50;99.90;;;;;;5031032;28;20696;-91
2021/12/21 04:43:29;;;;;;;5.35;2.13;;;-1.60;99.90;;;;;;5032427;28;20616;-91
2021/12/21 04:45:55;;;;;;;9.63;3.15;;;-1.60;99.90;;;;;;5033322;28;20127;-91
2021/12/21 04:48:20;;;;;;;10.23;4.25;;;-1.60;99.90;;;;;;5016212;28;20037;-91
2021/12/21 04:50:46;;;;;;;10.25;4.03;;;-1.60;99.90;;;;;;5017074;28;20045;-91
2021/12/21 04:53:13;;;;;;;11.48;3.60;;;-1.60;99.90;;;;;;5032355;28;20037;-91
2021/12/21 04:55:38;;;;;;;10.02;4.00;;;-1.60;99.90;;;;;;5032636;28;20041;-91
2021/12/21 04:58:04;;;;;;;12.20;4.75;;;-1.60;99.90;;;;;;5016489;28;20029;-91
2021/12/21 05:00:31;;;;;;;11.30;4.45;;;-1.60;99.90;;;;;;5032888;28;20594;-92
2021/12/21 05:02:57;;;;;;;12.68;5.15;;;-1.60;99.90;;;;;;5015810;28;20484;-91
2021/12/21 05:05:23;;;;;;;11.02;4.55;;;-1.60;99.90;;;;;;5015141;28;20117;-91
2021/12/21 05:07:54;;;;;;;14.32;7.03;;;-1.60;99.90;;;;;;5032712;28;20497;-90
2021/12/21 05:10:20;;;;;;;14.75;5.60;;;-1.60;99.90;;;;;;5016101;28;20041;-91
2021/12/21 05:12:46;;;;;;;13.57;6.07;;;-1.60;99.90;;;;;;5016023;28;20037;-91
2021/12/21 05:15:13;;;;;;;14.10;6.07;;;-1.60;99.90;;;;;;5016053;28;20033;-91
2021/12/21 05:17:38;;;;;;;11.20;5.75;;;-1.60;99.90;;;;;;5032352;28;20033;-91
2021/12/21 05:20:05;;;;;;;12.90;7.07;;;-1.60;99.90;;;;;;5032879;28;20087;-91
2021/12/21 05:22:30;;;;;;;13.02;5.38;;;-1.60;99.90;;;;;;5016709;28;20044;-91
2021/12/21 05:24:56;;;;;;;11.77;4.95;;;-1.60;99.90;;;;;;5015560;28;20280;-91
2021/12/21 05:27:23;;;;;;;8.27;3.33;;;-1.60;99.90;;;;;;5032693;28;20051;-90
2021/12/21 05:29:49;;;;;;;7.22;3.20;;;-1.60;99.90;;;;;;5016160;28;20045;-91
2021/12/21 05:32:14;;;;;;;9.38;3.78;;;-1.70;99.90;;;;;;5015610;28;20562;-91
2021/12/21 05:34:40;;;;;;;10.88;4.72;;;-1.60;99.90;;;;;;5015722;28;20080;-91
2021/12/21 05:37:06;;;;;;;12.15;5.57;;;-1.60;99.90;;;;;;5032550;28;20410;-91
2021/12/21 05:39:42;;;;;;;12.18;4.40;;;-1.60;99.90;;;;;;5032609;28;20082;-91
2021/12/21 05:42:08;;;;;;;12.02;4.88;;;-1.60;99.90;;;;;;5016314;28;20064;-90
2021/12/21 05:44:33;;;;;;;13.98;5.00;;;-1.60;99.90;;;;;;5015862;28;20059;-91
2021/12/21 05:46:59;;;;;;;12.23;5.40;;;-1.70;99.90;;;;;;5016057;28;20041;-91
2021/12/21 05:49:24;;;;;;;13.95;4.30;;;-1.60;99.90;;;;;;5032525;28;20410;-91
2021/12/21 05:51:51;;;;;;;10.50;4.07;;;-1.60;99.90;;;;;;5034221;28;20123;-91
2021/12/21 05:54:21;;;;;;;10.88;3.95;;;-1.60;99.90;;;;;;5019445;28;20037;-91
2021/12/21 05:56:47;;;;;;;10.30;3.63;;;-1.60;99.90;;;;;;5035586;28;20737;-91
2021/12/21 05:59:13;;;;;;;12.07;4.57;;;-1.60;99.90;;;;;;5035749;28;20033;-91
2021/12/21 06:01:38;;;;;;;10.63;4.63;;;-1.60;99.90;;;;;;5018506;28;20076;-91
2021/12/21 06:04:05;;;;;;;10.95;4.38;;;-1.60;99.90;;;;;;5035591;28;20076;-91
2021/12/21 06:06:32;;;;;;;12.07;4.20;;;-1.60;99.90;;;;;;5019290;28;20033;-91
2021/12/21 06:09:03;;;;;;;8.48;3.78;;;-1.60;99.90;;;;;;5035455;28;20120;-91
2021/12/21 06:11:29;;;;;;;9.63;4.15;;;-1.60;99.90;;;;;;5035194;28;20041;-91
2021/12/21 06:27:18;;;;;;;14.15;5.30;;;-1.70;99.90;;;;;;5035311;28;20045;-91
2021/12/21 06:29:44;;;;;;;14.27;6.25;;;-1.70;99.90;;;;;;5035183;28;20051;-91
2021/12/21 06:32:11;;;;;;;13.65;6.05;;;-1.70;99.90;;;;;;5018756;28;20410;-91
2021/12/21 06:34:37;;;;;;;12.98;6.55;;;-1.70;99.90;;;;;;5018504;28;20037;-91
2021/12/21 06:37:03;;;;;;;13.73;6.35;;;-1.70;99.90;;;;;;5035050;28;20476;-91
2021/12/21 06:39:29;;;;;;;13.27;5.82;;;-1.70;99.90;;;;;;5034584;28;20033;-91
2021/12/21 06:41:55;;;;;;;11.63;5.63;;;-1.70;99.90;;;;;;5018993;28;20039;-90
2021/12/21 06:44:21;;;;;;;13.05;5.88;;;-1.70;99.90;;;;;;5034889;28;20048;-91
2021/12/21 06:51:58;;;;;;;12.05;5.10;;;-1.70;99.90;;;;;;5035042;28;20099;-90
2021/12/21 06:54:24;;;;;;;10.23;4.90;;;-1.70;99.90;;;;;;5017736;28;20524;-91
2021/12/21 06:56:49;;;;;;;10.70;5.50;;;-1.70;99.90;;;;;;5034534;28;20029;-91
2021/12/21 06:59:16;;;;;;;13.38;5.72;;;-1.80;99.90;;;;;;5034724;28;20036;-91
2021/12/21 07:01:42;;;;;;;13.80;6.18;;;-1.80;99.90;;;;;;5017648;28;20402;-91
2021/12/21 07:04:10;;;;;;;12.98;5.30;;;-1.80;99.90;;;;;;5032431;28;20037;-91
2021/12/21 07:06:38;;;;;;;12.20;6.03;;;-1.80;99.90;;;;;;5018526;28;20036;-90
2021/12/21 07:09:12;;;;;;;12.50;5.75;;;-1.80;99.90;;;;;;5034044;28;20047;-91
2021/12/21 07:11:44;;;;;;;14.52;5.50;;;-1.80;99.90;;;;;;5034470;28;20509;-91
2021/12/21 07:19:42;;;;;;;11.60;5.72;;;-1.80;99.90;;;;;;5034315;28;20041;-91
2021/12/21 07:22:08;;;;;;;12.27;5.18;;;-1.80;99.90;;;;;;5034059;28;20044;-91
2021/12/21 07:24:34;;;;;;;11.68;5.25;;;-1.80;99.90;;;;;;5017711;28;20040;-91
2021/12/21 07:26:59;;;;;;;12.98;5.55;;;-1.80;99.90;;;;;;5017972;28;20060;-91
2021/12/21 07:29:25;;;;;;;13.55;6.35;;;-1.90;99.90;;;;;;5017468;28;20032;-91
2021/12/21 07:31:51;;;;;;;10.38;5.15;;;-1.90;99.90;;;;;;5034210;28;20556;-91
2021/12/21 07:34:17;;;;;;;15.05;6.03;;;-1.90;99.90;;;;;;5017371;28;20045;-91
2021/12/21 07:36:43;;;;;;;12.27;5.40;;;-1.80;99.90;;;;;;5017251;28;20044;-91
2021/12/21 07:39:13;;;;;;;12.30;5.18;;;-1.90;99.90;;;;;;5034226;28;20068;-91
2021/12/21 07:41:39;;;;;;;14.10;6.32;;;-1.90;99.90;;;;;;5017860;28;20037;-91
2021/12/21 07:44:05;;;;;;;12.80;5.22;;;-1.90;99.90;;;;;;5017408;28;20486;-91
2021/12/21 07:46:31;;;;;;;11.30;5.30;;;-1.90;99.90;;;;;;5033730;28;20045;-91
2021/12/21 07:48:57;;;;;;;14.70;5.00;;;-1.90;99.90;;;;;;5017263;28;20041;-91
2021/12/21 07:51:23;;;;;;;12.27;4.78;;;-1.90;99.90;;;;;;5017608;28;20552;-91
2021/12/21 07:53:49;;;;;;;12.88;5.47;;;-1.90;99.90;;;;;;5032923;28;20040;-91
2021/12/21 07:56:16;;;;;;;12.73;5.30;;;-1.90;99.90;;;;;;5017007;28;20453;-91
2021/12/21 07:58:43;;;;;;;13.10;5.18;;;-1.90;99.90;;;;;;5017269;28;20036;-91
2021/12/21 08:01:10;;;;;;;12.13;5.47;;;-1.90;99.90;;;;;;5033123;28;20391;-91
2021/12/21 08:03:35;;;;;;;10.57;5.28;;;-1.80;99.90;;;;;;5017078;28;20041;-91
2021/12/21 08:06:03;;;;;;;9.95;4.75;;;-1.80;99.90;;;;;;5033504;28;20508;-91
2021/12/21 08:08:30;;;;;;;13.27;5.28;;;-1.80;99.90;;;;;;5033699;28;20045;-91
2021/12/21 08:13:37;;;;;;;11.68;5.72;;;-1.90;99.90;;;;;;5033278;28;20044;-91
2021/12/21 08:16:03;;;;;;;11.02;4.88;;;-1.80;99.90;;;;;;5033310;28;20128;-92
2021/12/21 08:18:29;;;;;;;13.27;5.57;;;-1.80;99.90;;;;;;5033278;28;20060;-91
2021/12/21 08:20:55;;;;;;;10.43;5.22;;;-1.80;99.90;;;;;;5016856;28;20513;-91
2021/12/21 08:23:20;;;;;;;10.82;4.78;;;-1.80;99.90;;;;;;5016844;28;20205;-92
2021/12/21 08:25:46;;;;;;;9.40;4.50;;;-1.80;99.90;;;;;;5016954;28;20125;-91
2021/12/21 08:28:12;;;;;;;12.85;5.22;;;-1.80;99.90;;;;;;5016746;28;20037;-91
2021/12/21 08:30:38;;;;;;;12.88;5.90;;;-1.80;99.90;;;;;;5016722;28;20066;-91
2021/12/21 08:33:04;;;;;;;13.48;5.78;;;-1.80;99.90;;;;;;5033243;28;20040;-91
2021/12/21 08:35:31;;;;;;;15.25;5.85;;;-1.80;99.90;;;;;;5016645;28;20071;-91
2021/12/21 08:38:03;;;;;;;15.55;6.35;;;-1.80;99.90;;;;;;5016673;28;20126;-91
2021/12/21 08:40:38;;;;;;;13.77;5.90;;;-1.70;99.90;;;;;;5031716;28;20422;-91
2021/12/21 08:43:10;;;;;;;14.25;5.32;;;-1.70;99.90;;;;;;5033354;28;20053;-91
2021/12/21 08:45:37;;;;;;;11.93;5.60;;;-1.70;99.90;;;;;;5017153;28;20383;-91
2021/12/21 08:48:05;;;;;;;13.80;5.68;;;-1.70;99.90;;;;;;5016570;28;20120;-92
2021/12/21 08:50:31;;;;;;;11.85;5.45;;;-1.60;99.90;;;;;;5015919;28;20494;-91
2021/12/21 08:52:58;;;;;;;13.90;6.75;;;-1.60;99.90;;;;;;5033514;28;20072;-91
2021/12/21 08:55:23;;;;;;;16.13;9.80;;;-1.60;99.90;;;;;;5013990;28;20486;-91
2021/12/21 08:57:49;;;;;;;14.70;7.55;;;-1.50;99.90;;;;;;5032438;28;20071;-91
2021/12/21 09:00:16;;;;;;;12.70;6.18;;;-1.50;99.90;;;;;;5036280;28;20063;-92
2021/12/21 09:02:41;;;;;;;18.63;6.30;;;-1.40;99.90;;;;;;5013486;28;20095;-91
2021/12/21 09:05:14;;;;;;;15.80;6.35;;;-1.40;99.90;;;;;;5012669;28;20037;-92
2021/12/21 09:07:40;;;;;;;11.60;5.70;;;-1.30;99.90;;;;;;5029648;28;20049;-92
2021/12/21 09:10:07;;;;;;;14.73;6.43;;;-1.30;99.90;;;;;;5012725;28;20168;-92
2021/12/21 09:12:34;;;;;;;14.32;6.95;;;-1.20;99.90;;;;;;5028974;28;20502;-92
2021/12/21 09:15:00;;;;;;;14.30;6.07;;;-1.10;99.90;;;;;;5012654;28;20049;-92
2021/12/21 09:17:28;;;;;;;13.18;6.55;;;-1.10;99.90;;;;;;5029204;28;20041;-92
2021/12/21 09:19:54;;;;;;;15.88;7.25;;;-1.00;99.90;;;;;;5028586;28;20495;-92
2021/12/21 09:22:20;;;;;;;11.55;6.07;;;-0.90;99.90;;;;;;5029370;28;20038;-92
2021/12/21 09:24:45;;;;;;;17.33;7.00;;;-0.80;99.90;;;;;;5029025;28;20127;-92
2021/12/21 09:27:12;;;;;;;14.02;6.97;;;-0.70;99.90;;;;;;5032053;28;20047;-92
2021/12/21 09:29:38;;;;;;;17.63;8.13;;;-0.70;99.90;;;;;;5033308;28;20055;-92
2021/12/21 09:32:06;;;;;;;17.95;8.70;;;-0.60;99.90;;;;;;5012112;28;20947;-93
2021/12/21 09:34:31;;;;;;;18.70;8.65;;;-0.50;99.90;;;;;;5015423;28;20045;-93
2021/12/21 09:36:57;;;;;;;16.42;8.57;;;-0.40;99.90;;;;;;5018631;28;20037;-93
2021/12/21 09:39:23;;;;;;;16.05;8.02;;;-0.40;99.90;;;;;;5019953;28;20033;-92
2021/12/21 09:41:48;;;;;;;15.98;8.80;;;-0.30;99.90;;;;;;5046496;28;20116;-93
2021/12/21 09:44:14;;;;;;;16.88;8.35;;;-0.20;99.90;;;;;;5036024;28;20417;-93
2021/12/21 09:46:40;;;;;;;17.27;8.48;;;-0.20;99.90;;;;;;5036631;28;20049;-93
2021/12/21 09:49:05;;;;;;;15.68;7.32;;;-0.10;99.90;;;;;;5036220;28;20041;-93
2021/12/21 09:51:31;;;;;;;17.95;8.77;;;0.00;99.90;;;;;;5033506;28;20051;-93
2021/12/21 09:53:57;;;;;;;15.95;8.98;;;0.00;99.90;;;;;;5035337;28;20041;-94
2021/12/21 09:56:23;;;;;;;14.00;7.85;;;0.10;99.90;;;;;;5036213;28;20043;-94
2021/12/21 09:58:49;;;;;;;14.68;8.30;;;0.20;99.90;;;;;;5019699;28;20128;-93
2021/12/21 10:01:16;;;;;;;18.90;8.82;;;0.30;99.90;;;;;;5035872;28;20063;-94
2021/12/21 10:03:42;;;;;;;15.40;8.98;;;0.40;99.90;;;;;;5036058;28;20437;-94
2021/12/21 10:06:10;;;;;;;15.02;8.90;;;0.50;99.90;;;;;;5036584;28;20044;-94
2021/12/21 10:08:37;;;;;;;18.23;9.55;;;0.60;99.90;;;;;;5036696;28;20037;-94
2021/12/21 10:11:15;;;;;;;17.50;9.98;;;0.60;99.90;;;;;;5035627;28;20041;-94
2021/12/21 10:13:41;;;;;;;17.27;9.05;;;0.70;99.90;;;;;;5035501;28;20040;-94
2021/12/21 10:16:07;;;;;;;14.50;8.95;;;0.80;99.90;;;;;;5019649;28;20098;-94
2021/12/21 10:18:39;;;;;;;19.30;10.52;;;0.90;99.90;;;;;;5019742;28;20087;-94
2021/12/21 10:21:08;;;;;;;15.23;9.40;;;1.00;99.90;;;;;;5019326;28;20083;-94
2021/12/21 10:23:42;;;;;;;19.02;10.68;;;1.10;99.90;;;;;;5035845;28;20457;-94
2021/12/21 10:26:13;;;;;;;17.67;9.88;;;1.20;99.90;;;;;;5019393;28;20086;-95
2021/12/21 10:28:42;;;;;;;17.73;8.90;;;1.30;99.90;;;;;;5036628;28;20045;-94
2021/12/21 10:31:25;;;;;;;16.35;9.65;;;1.40;99.90;;;;;;5019591;28;20091;-94
2021/12/21 10:33:52;;;;;;;26.42;15.27;;;1.50;99.90;;;;;;5036951;28;20590;-94
2021/12/21 10:36:18;;;;;;;22.20;15.20;;;1.60;99.90;;;;;;5037206;28;20043;-94
2021/12/21 10:38:57;;;;;;;22.67;16.70;;;1.80;99.90;;;;;;5036493;28;20410;-94
2021/12/21 10:41:40;;;;;;;24.48;17.23;;;1.90;99.90;;;;;;5037013;28;20049;-93
2021/12/21 10:44:18;;;;;;;27.92;16.17;;;2.00;99.90;;;;;;5016277;28;20041;-93
2021/12/21 10:46:49;;;;;;;24.25;15.38;;;2.20;99.90;;;;;;5016368;28;20045;-94
2021/12/21 10:49:21;;;;;;;22.17;15.30;;;2.30;99.90;;;;;;4999680;28;20494;-94
2021/12/21 10:52:05;;;;;;;20.27;14.07;;;2.40;99.90;;;;;;5015630;28;20049;-93
2021/12/21 10:54:44;;;;;;;22.38;15.88;;;2.60;99.90;;;;;;5015594;28;20304;-93
2021/12/21 10:57:15;;;;;;;23.80;14.90;;;2.70;99.90;;;;;;4999172;28;20029;-93
2021/12/21 10:59:45;;;;;;;27.10;16.20;;;2.80;99.90;;;;;;5015050;28;20045;-93
2021/12/21 11:02:13;;;;;;;27.20;17.25;;;2.90;99.90;;;;;;5008563;28;20414;-93
2021/12/21 11:04:41;;;;;;;25.85;16.00;;;3.00;99.90;;;;;;5035609;28;20075;-93
2021/12/21 11:10:14;;;;;;;20.73;14.52;;;3.30;99.90;;;;;;5031455;28;20045;-93
2021/12/21 11:12:43;;;;;;;24.30;16.33;;;3.50;99.90;;;;;;5015148;28;20041;-93
2021/12/21 11:15:16;;;;;;;22.27;17.05;;;3.60;99.90;;;;;;5013401;28;20137;-93
2021/12/21 11:17:42;;;;;;;22.73;16.33;;;3.70;99.90;;;;;;5030499;28;20033;-92
2021/12/21 11:20:10;;;;;;;22.90;15.88;;;3.90;99.90;;;;;;5029210;28;20119;-93
2021/12/21 11:22:39;;;;;;;25.40;15.25;;;4.10;99.90;;;;;;5014638;28;20073;-93
2021/12/21 11:25:07;;;;;;;21.92;15.40;;;4.30;99.90;;;;;;5031318;28;20041;-92
2021/12/21 11:27:35;;;;;;;20.30;14.75;;;4.40;99.90;;;;;;5014640;28;20132;-92
2021/12/21 11:30:05;;;;;;;20.83;15.82;;;4.60;99.90;;;;;;5031847;28;20045;-92
2021/12/21 11:32:38;;;;;;;20.13;15.40;;;4.80;99.90;;;;;;5014853;28;20129;-92
2021/12/21 11:37:20;;;;;;;22.30;15.95;;;4.90;99.90;;;;;;5030639;28;20407;-92
2021/12/21 11:37:57;;;;;;;21.90;15.02;;;5.10;99.90;;;;;;5030287;28;20042;-92
2021/12/21 11:40:29;;;;;;;21.45;15.65;;;5.40;99.90;;;;;;5034401;28;20041;-92
2021/12/21 11:43:06;;;;;;;21.15;14.40;;;5.70;99.90;;;;;;5031969;28;20024;-92
2021/12/21 11:45:47;;;;;;;21.75;15.50;;;5.90;99.90;;;;;;5043652;28;20494;-92
2021/12/21 11:48:26;;;;;;;21.83;14.85;;;6.10;99.90;;;;;;5020855;28;20044;-92
2021/12/21 11:50:51;;;;;;;25.42;15.23;;;6.40;99.90;;;;;;5031275;28;20047;-92
2021/12/21 11:53:19;;;;;;;25.90;15.18;;;7.00;99.90;;;;;;5054408;28;20052;-92
2021/12/21 11:55:49;;;;;;;23.27;14.60;;;7.50;99.90;;;;;;5037499;28;20036;-92
2021/12/21 11:58:23;;;;;;;21.58;13.82;;;8.20;99.80;;;;;;5037329;28;20254;-92
2021/12/21 12:01:20;;;;;;;22.95;10.93;;;9.00;97.50;;;;;;5054354;28;20041;-92
2021/12/21 12:04:09;;;;;;;20.85;12.65;;;10.20;96.10;;;;;;5045899;28;20078;-92
2021/12/21 12:06:55;;;;;;;23.65;12.68;;;11.60;94.30;;;;;;5037041;28;20037;-92
2021/12/21 12:09:25;;;;;;;20.67;11.73;;;12.90;89.10;;;;;;5036726;28;20036;-92
2021/12/21 12:11:52;;;;;;;20.25;11.35;;;13.90;82.30;;;;;;5053892;28;20048;-92
2021/12/21 12:14:20;;;;;;;18.77;11.55;;;14.70;76.80;;;;;;5036470;28;20440;-91
2021/12/21 12:16:55;;;;;;;16.52;10.80;;;15.20;73.10;;;;;;5037019;28;20039;-92
2021/12/21 12:19:33;;;;;;;18.52;11.00;;;15.80;70.20;;;;;;5045488;28;20060;-92
2021/12/21 12:22:02;;;;;;;19.35;10.65;;;16.60;68.20;;;;;;5014104;28;20454;-92
2021/12/21 12:24:35;;;;;;;15.75;9.80;;;17.50;65.40;;;;;;5029756;28;20063;-92
2021/12/21 12:27:15;;;;;;;14.48;9.13;;;18.10;63.10;;;;;;5015355;28;20568;-92
2021/12/21 12:29:53;;;;;;;14.40;9.45;;;18.80;62.20;;;;;;5017311;28;20123;-92
2021/12/21 12:32:34;;;;;;;15.23;8.65;;;19.30;58.60;;;;;;5041340;28;20091;-92
2021/12/21 12:35:16;;;;;;;14.82;8.85;;;19.80;56.10;;;;;;5025710;28;20593;-93
2021/12/21 12:38:02;;;;;;;16.60;9.25;;;20.50;54.40;;;;;;5039546;28;20056;-93
2021/12/21 12:41:02;;;;;;;16.23;8.95;;;20.90;52.00;;;;;;5021351;28;20069;-92
2021/12/21 12:43:30;;;;;;;16.60;7.68;;;21.40;51.60;;;;;;5006269;28;20071;-92
2021/12/21 12:46:04;;;;;;;16.88;7.93;;;21.80;50.00;;;;;;5029151;28;20120;-93
2021/12/21 12:48:42;;;;;;;16.13;8.38;;;22.10;48.70;;;;;;5030167;28;20414;-93
2021/12/21 12:51:22;;;;;;;14.82;7.95;;;22.30;46.70;;;;;;5029900;28;20406;-92
2021/12/21 12:53:48;;;;;;;15.77;8.52;;;22.50;46.90;;;;;;5029499;28;20403;-92
2021/12/21 12:56:15;;;;;;;14.10;8.38;;;22.80;46.20;;;;;;5030354;28;20037;-92
2021/12/21 12:58:50;;;;;;;13.80;8.25;;;23.10;45.00;;;;;;5030054;28;20042;-92
2021/12/21 13:01:22;;;;;;;14.82;8.20;;;23.40;44.00;;;;;;5030665;28;20041;-93
2021/12/21 13:03:50;;;;;;;12.90;7.13;;;23.70;44.10;;;;;;5033750;28;20099;-92
2021/12/21 13:06:19;;;;;;;15.15;7.18;;;23.90;43.70;;;;;;5032459;28;20356;-92
2021/12/21 13:08:46;;;;;;;13.02;7.20;;;24.00;42.60;;;;;;5033734;28;20033;-93
2021/12/21 13:11:14;;;;;;;14.60;6.55;;;24.20;42.20;;;;;;5034351;28;20422;-93
2021/12/21 13:13:42;;;;;;;14.60;7.40;;;24.30;41.40;;;;;;5033512;28;20429;-92
2021/12/21 13:16:10;;;;;;;14.45;7.13;;;24.50;40.40;;;;;;5034899;28;20049;-92
2021/12/21 13:18:45;;;;;;;12.38;6.25;;;24.60;39.70;;;;;;5015993;28;20096;-93
2021/12/21 13:21:21;;;;;;;13.30;7.07;;;24.70;39.40;;;;;;5033777;28;20048;-92
2021/12/21 13:23:51;;;;;;;13.50;6.60;;;24.90;39.30;;;;;;5016563;28;20052;-92
2021/12/21 13:26:18;;;;;;;13.27;7.00;;;25.00;38.90;;;;;;5033511;28;20143;-92
2021/12/21 13:28:56;;;;;;;13.90;6.82;;;25.00;38.20;;;;;;5016971;28;20076;-93
2021/12/21 13:31:23;;;;;;;12.95;6.50;;;25.00;37.70;;;;;;5033737;28;20506;-93
2021/12/21 13:33:58;;;;;;;13.05;6.70;;;24.90;38.00;;;;;;5017198;28;20041;-92
2021/12/21 13:36:36;;;;;;;13.90;6.78;;;24.70;37.00;;;;;;5033302;28;20053;-93
2021/12/21 13:39:29;;;;;;;14.23;6.95;;;24.80;37.30;;;;;;5018008;28;20044;-93
2021/12/21 13:42:00;;;;;;;14.15;7.35;;;25.00;37.10;;;;;;5033480;28;20053;-93
2021/12/21 13:44:41;;;;;;;13.00;7.47;;;24.70;36.90;;;;;;5035213;28;20040;-93
2021/12/21 13:47:31;;;;;;;12.63;6.85;;;24.40;37.00;;;;;;5036222;28;20037;-93
2021/12/21 13:49:59;;;;;;;13.27;7.53;;;24.10;36.80;;;;;;5036555;28;20047;-93
2021/12/21 13:52:30;;;;;;;14.07;7.03;;;24.20;37.00;;;;;;5036193;28;20501;-94
2021/12/21 13:54:56;;;;;;;13.20;6.40;;;24.40;37.00;;;;;;5019808;28;20045;-93
2021/12/21 13:57:23;;;;;;;11.98;6.57;;;24.40;37.50;;;;;;5036011;28;20152;-93
2021/12/21 13:59:56;;;;;;;12.73;6.40;;;24.30;36.80;;;;;;5032836;28;20497;-93
2021/12/21 14:02:35;;;;;;;12.55;6.32;;;24.50;36.50;;;;;;5033326;28;20459;-93